Vilo Acuña International Airport

Jump to: basic info | weather | frequencies | runways | comments

Related pages: nearby airports | nearby navaids | notams | map

Basic information (top)

Codes: CYO MUCL
Location: lon 21.616501, lat -81.545998, elev 10 ft / 3 m msl
Status: medium_airport
Scheduled airline service: yes
Links: Wikipedia Mobile

Weather (top)

Current conditions (rec'd 2014/09/01 10:50Z):

MUCL 011050Z 09010KT 9000 FEW015 26/XX Q1015

Airport forecast (rec'd 2014/08/28 12:12Z):

TAF MUCL 281100Z 2812/2824 13005KT 9000 BKN020 PROB30 
      TEMPO 2812/2814 4000 RA BKN015 
      BECMG 2815/2816 13012KT 
      TEMPO 2818/2824 3000 TSRA SCT012CB BKN015

Frequencies (top)

Verify before use: may be inaccurate or out of date.

A/G: 340.7 MHz (CAYO LARGO RDO)
APP: 120.1 MHz (CAYO LARGO APP)
TWR: 118.5 MHz (CAYO LARGO TWR)

Runways (top)

12/30: 9,869 x 148 ft (3,008 x 45 m) — paved — lighted

Latest comments (top)

No comments yet for Vilo Acuña International Airport

More... (top)

See also NOTAMs and nearby airports and navaids, or visit the Vilo Acuña International Airport page at the main OurAirports website..